createdAt,value
2022-08-10T00:04:03.396Z,101689.44
2022-08-10T00:09:09.203Z,101689.25
2022-08-10T00:14:15.007Z,101692.04
2022-08-10T00:19:20.965Z,101692.69
2022-08-10T00:24:28.961Z,101689.98
2022-08-10T00:29:34.812Z,101686.36
2022-08-10T00:34:40.622Z,101683.20
2022-08-10T00:39:46.777Z,101684.39
2022-08-10T00:44:53.648Z,101685.15
2022-08-10T00:49:59.546Z,101685.02
2022-08-10T00:55:06.637Z,101685.38
2022-08-10T01:00:13.928Z,101685.27
2022-08-10T01:05:20.908Z,101686.37
2022-08-10T01:10:34.620Z,101690.15
2022-08-10T01:15:51.330Z,101691.67
2022-08-10T01:21:32.869Z,101692.66
2022-08-10T01:26:50.078Z,101693.21
2022-08-10T01:32:02.305Z,101690.80
2022-08-10T01:37:13.221Z,101695.64
2022-08-10T01:42:23.568Z,101694.47
2022-08-10T01:47:54.126Z,101696.67
2022-08-10T01:53:04.131Z,101698.02
2022-08-10T01:58:11.760Z,101698.75
2022-08-10T02:03:20.828Z,101701.41
2022-08-10T02:08:29.126Z,101700.56
2022-08-10T02:13:36.454Z,101700.23
2022-08-10T02:18:44.841Z,101702.33
2022-08-10T02:23:56.134Z,101704.26
2022-08-10T02:29:07.628Z,101708.94
2022-08-10T02:34:15.727Z,101712.01
2022-08-10T02:39:23.381Z,101711.98
2022-08-10T02:45:24.324Z,101712.79
2022-08-10T02:50:08.292Z,101716.38
2022-08-10T02:55:27.272Z,101717.84
2022-08-10T03:00:44.703Z,101719.31
2022-08-10T03:05:54.733Z,101718.38
2022-08-10T03:11:03.258Z,101721.53
2022-08-10T03:16:09.918Z,101719.77
2022-08-10T03:21:18.116Z,101716.41
2022-08-10T03:26:24.310Z,101720.89
2022-08-10T03:31:31.461Z,101721.23
2022-08-10T03:36:43.365Z,101722.98
2022-08-10T03:41:55.652Z,101727.17
2022-08-10T03:47:16.239Z,101733.42
2022-08-10T03:52:23.627Z,101735.36
2022-08-10T03:57:30.214Z,101740.76
2022-08-10T04:02:52.195Z,101742.48
2022-08-10T04:07:59.480Z,101744.72
2022-08-10T04:13:05.356Z,101742.90
2022-08-10T04:18:11.204Z,101745.77
2022-08-10T04:23:23.245Z,101748.50
2022-08-10T04:28:29.341Z,101747.30
2022-08-10T04:33:37.235Z,101745.81
2022-08-10T04:38:43.994Z,101751.27
2022-08-10T04:43:49.722Z,101750.11
2022-08-10T04:48:59.442Z,101749.44
2022-08-10T04:54:08.099Z,101750.80
2022-08-10T04:59:14.273Z,101754.65
2022-08-10T05:04:34.346Z,101760.05
2022-08-10T05:10:01.047Z,101764.96
2022-08-10T05:15:13.873Z,101763.40
2022-08-10T05:20:20.632Z,101759.55
2022-08-10T05:25:26.480Z,101762.27
2022-08-10T05:30:32.505Z,101766.05
2022-08-10T05:35:52.804Z,101771.08
2022-08-10T05:41:04.732Z,101773.66
2022-08-10T05:46:19.210Z,101775.06
2022-08-10T05:51:28.168Z,101776.88
2022-08-10T05:56:53.908Z,101771.45
2022-08-10T06:02:32.867Z,101773.32
2022-08-10T06:07:33.300Z,101776.91
2022-08-10T06:12:54.080Z,101769.13
2022-08-10T06:18:02.834Z,101776.64
2022-08-10T06:23:09.683Z,101779.32
2022-08-10T06:28:17.972Z,101780.16
2022-08-10T06:33:26.716Z,101781.85
2022-08-10T06:38:36.130Z,101781.20
2022-08-10T06:43:47.621Z,101783.62
2022-08-10T06:48:59.119Z,101779.13
2022-08-10T06:54:07.818Z,101776.52
2022-08-10T06:59:20.904Z,101777.11
2022-08-10T07:04:32.247Z,101765.98
2022-08-10T07:09:41.419Z,101764.49
2022-08-10T07:14:48.527Z,101767.35
2022-08-10T07:19:57.724Z,101772.30
2022-08-10T07:25:06.943Z,101775.76
2022-08-10T07:30:14.214Z,101770.15
2022-08-10T07:35:21.611Z,101767.88
2022-08-10T07:40:28.494Z,101767.84
2022-08-10T07:45:35.578Z,101773.21
2022-08-10T07:50:42.779Z,101773.89
2022-08-10T07:56:04.867Z,101773.92
2022-08-10T08:01:20.883Z,101775.23
2022-08-10T08:06:27.245Z,101777.25
2022-08-10T08:11:32.320Z,101775.54
2022-08-10T08:16:41.745Z,101780.11
2022-08-10T08:24:07.234Z,101769.96
2022-08-10T08:27:19.749Z,101772.68
2022-08-10T08:32:28.189Z,101771.09
2022-08-10T08:38:29.546Z,101766.98
2022-08-10T08:43:22.440Z,101761.04
2022-08-10T08:48:44.322Z,101756.88
2022-08-10T08:54:05.794Z,101762.77
2022-08-10T08:59:30.011Z,101752.02
2022-08-10T09:05:04.535Z,101755.50
2022-08-10T09:10:21.943Z,101758.11
2022-08-10T09:15:39.711Z,101757.09
2022-08-10T09:20:53.857Z,101749.25
2022-08-10T09:26:04.330Z,101740.44
2022-08-10T09:31:21.874Z,101743.66
2022-08-10T09:36:37.272Z,101739.46
2022-08-10T09:41:56.190Z,101733.85
2022-08-10T09:47:19.136Z,101734.59
2022-08-10T09:52:34.829Z,101736.18
2022-08-10T09:57:58.150Z,101731.55
2022-08-10T10:03:14.925Z,101726.48
2022-08-10T10:08:31.384Z,101718.00
2022-08-10T10:14:02.562Z,101707.17
2022-08-10T10:19:26.820Z,101706.83
2022-08-10T10:24:42.780Z,101703.48
2022-08-10T10:29:57.946Z,101698.93
2022-08-10T10:35:15.742Z,101694.84
2022-08-10T10:40:24.451Z,101703.06
2022-08-10T10:45:41.662Z,101698.24
2022-08-10T10:51:10.728Z,101698.01
2022-08-10T10:56:35.975Z,101690.23
2022-08-10T11:02:01.959Z,101687.55
2022-08-10T11:07:17.882Z,101678.11
2022-08-10T11:12:33.958Z,101672.28
2022-08-10T11:17:46.293Z,101667.30
2022-08-10T11:23:03.944Z,101659.58
2022-08-10T11:28:16.422Z,101660.85
2022-08-10T11:34:04.100Z,101655.98
2022-08-10T11:39:15.005Z,101654.40
2022-08-10T11:44:29.735Z,101645.35
2022-08-10T11:49:41.681Z,101646.98
2022-08-10T11:54:53.275Z,101639.45
2022-08-10T11:59:59.655Z,101629.05
2022-08-10T12:05:11.187Z,101627.02
2022-08-10T12:10:19.032Z,101625.77
2022-08-10T12:15:34.421Z,101621.96
2022-08-10T12:20:45.226Z,101629.17
2022-08-10T12:26:04.160Z,101625.89
2022-08-10T12:31:13.502Z,101625.96
2022-08-10T12:36:27.063Z,101623.21
2022-08-10T12:41:44.736Z,101610.99
2022-08-10T12:46:58.594Z,101601.30
2022-08-10T12:52:11.674Z,101595.23
2022-08-10T12:57:24.830Z,101578.89
2022-08-10T13:02:34.801Z,101580.87
2022-08-10T13:08:03.811Z,101585.26
2022-08-10T13:13:06.279Z,101581.84
2022-08-10T13:18:18.132Z,101582.95
2022-08-10T13:23:29.371Z,101577.30
2022-08-10T13:28:45.336Z,101577.60
2022-08-10T13:34:40.656Z,101568.14
2022-08-10T13:39:25.634Z,101564.16
2022-08-10T13:44:42.013Z,101555.86
2022-08-10T13:49:48.297Z,101558.23
2022-08-10T13:54:56.054Z,101560.14
2022-08-10T14:00:37.310Z,101563.24
2022-08-10T14:05:35.801Z,101569.17
2022-08-10T14:11:09.017Z,101562.88
2022-08-10T14:16:11.464Z,101562.11
2022-08-10T14:21:17.389Z,101568.05
2022-08-10T14:26:28.179Z,101562.77
2022-08-10T14:31:37.119Z,101561.10
2022-08-10T14:36:47.718Z,101562.50
2022-08-10T14:42:01.593Z,101560.09
2022-08-10T14:47:52.094Z,101556.49
2022-08-10T14:52:45.384Z,101558.44
2022-08-10T14:58:16.703Z,101556.22
2022-08-10T15:04:00.586Z,101551.29
2022-08-10T15:08:47.136Z,101546.31
2022-08-10T15:14:03.949Z,101541.21
2022-08-10T15:20:01.281Z,101537.20
2022-08-10T15:25:05.655Z,101529.05
2022-08-10T15:30:32.624Z,101525.69
2022-08-10T15:35:59.964Z,101521.17
2022-08-10T15:41:11.075Z,101522.73
2022-08-10T15:46:22.945Z,101523.13
2022-08-10T15:51:53.612Z,101527.14
2022-08-10T15:57:07.236Z,101520.95
2022-08-10T16:02:18.535Z,101524.42
2022-08-10T16:07:48.984Z,101518.92
2022-08-10T16:13:00.858Z,101520.70
2022-08-10T16:18:09.802Z,101518.33
2022-08-10T16:23:24.091Z,101519.85
2022-08-10T16:28:35.559Z,101512.16
2022-08-10T16:33:54.342Z,101508.73
2022-08-10T16:39:02.395Z,101512.21
2022-08-10T16:44:10.408Z,101511.83
2022-08-10T16:49:19.743Z,101508.77
2022-08-10T16:54:27.914Z,101505.63
2022-08-10T16:59:38.273Z,101507.69
2022-08-10T17:04:46.674Z,101509.10
2022-08-10T17:09:55.093Z,101512.68
2022-08-10T17:15:09.799Z,101513.09
2022-08-10T17:20:31.779Z,101517.98
2022-08-10T17:25:46.714Z,101519.33
2022-08-10T17:31:03.815Z,101514.91
2022-08-10T17:36:29.736Z,101513.80
2022-08-10T17:41:37.786Z,101510.86
2022-08-10T17:46:45.835Z,101512.66
2022-08-10T17:51:56.536Z,101518.55
2022-08-10T17:57:04.921Z,101519.61
2022-08-10T18:02:14.772Z,101518.70
2022-08-10T18:07:28.320Z,101526.52
2022-08-10T18:12:43.775Z,101530.36
2022-08-10T18:17:58.302Z,101537.99
2022-08-10T18:23:07.852Z,101541.87
2022-08-10T18:28:19.203Z,101545.37
2022-08-10T18:33:28.987Z,101548.73
2022-08-10T18:38:38.592Z,101541.80
2022-08-10T18:44:04.618Z,101551.33
2022-08-10T18:49:16.656Z,101548.19
2022-08-10T18:54:39.029Z,101552.65
2022-08-10T19:00:08.753Z,101564.27
2022-08-10T19:05:35.426Z,101566.42
2022-08-10T19:10:53.408Z,101567.51
2022-08-10T19:16:07.419Z,101568.79
2022-08-10T19:21:21.387Z,101570.26
2022-08-10T19:26:44.557Z,101571.95
2022-08-10T19:32:17.910Z,101577.33
2022-08-10T19:37:33.887Z,101573.60
2022-08-10T19:42:47.153Z,101571.96
2022-08-10T19:48:00.237Z,101568.69
2022-08-10T19:53:14.474Z,101569.65
2022-08-10T19:58:23.787Z,101571.45
2022-08-10T20:03:39.955Z,101571.58
2022-08-10T20:08:52.735Z,101579.84
2022-08-10T20:14:21.473Z,101584.36
2022-08-10T20:19:53.668Z,101578.14
2022-08-10T20:25:08.705Z,101576.06
2022-08-10T20:35:46.291Z,101571.36
2022-08-10T20:41:06.278Z,101575.03
2022-08-10T20:46:22.077Z,101572.09
2022-08-10T20:51:58.417Z,101570.39
2022-08-10T20:57:54.244Z,101573.34
2022-08-10T21:02:54.547Z,101567.42
2022-08-10T21:08:11.588Z,101568.77
2022-08-10T21:13:44.258Z,101566.64
2022-08-10T21:19:02.670Z,101564.75
2022-08-10T21:24:12.062Z,101564.83
2022-08-10T21:29:40.097Z,101566.95
2022-08-10T21:35:10.071Z,101567.34
2022-08-10T21:40:43.952Z,101568.92
2022-08-10T21:46:37.684Z,101564.42
2022-08-10T21:52:08.025Z,101566.20
2022-08-10T21:57:43.481Z,101566.64
2022-08-10T22:03:10.028Z,101567.52
2022-08-10T22:08:40.092Z,101570.36
2022-08-10T22:14:10.677Z,101572.23
2022-08-10T22:19:38.543Z,101569.61
2022-08-10T22:25:19.466Z,101567.74
2022-08-10T22:31:14.895Z,101562.48
2022-08-10T22:36:55.512Z,101558.84
2022-08-10T22:42:58.135Z,101561.08
2022-08-10T22:48:22.047Z,101553.67
2022-08-10T22:53:53.468Z,101543.05
2022-08-10T22:58:59.347Z,101542.42
2022-08-10T23:04:10.405Z,101544.30
2022-08-10T23:09:22.837Z,101547.50
2022-08-10T23:14:36.610Z,101545.16
2022-08-10T23:19:47.230Z,101544.98
2022-08-10T23:25:03.415Z,101547.04
2022-08-10T23:30:17.647Z,101548.64
2022-08-10T23:36:30.825Z,101546.29
2022-08-10T23:40:56.121Z,101544.61
2022-08-10T23:46:05.584Z,101546.45
2022-08-10T23:51:16.951Z,101542.48
2022-08-10T23:56:25.396Z,101539.49
